sensor_id;sensor_type;location;lat;lon;timestamp;temperature;humidity
52889;DHT22;41413;52.770;6.892;2024-03-08T00:02:15;2.70;99.90
52889;DHT22;41413;52.770;6.892;2024-03-08T00:04:42;2.70;99.90
52889;DHT22;41413;52.770;6.892;2024-03-08T00:07:09;2.70;99.90
52889;DHT22;41413;52.770;6.892;2024-03-08T00:09:35;2.70;99.90
52889;DHT22;41413;52.770;6.892;2024-03-08T00:12:03;2.70;99.90
52889;DHT22;41413;52.770;6.892;2024-03-08T00:14:30;2.70;99.90
52889;DHT22;41413;52.770;6.892;2024-03-08T00:16:57;2.60;99.90
52889;DHT22;41413;52.770;6.892;2024-03-08T00:19:23;2.60;99.90
52889;DHT22;41413;52.770;6.892;2024-03-08T00:21:50;2.60;99.90
52889;DHT22;41413;52.770;6.892;2024-03-08T00:24:17;2.50;99.90
52889;DHT22;41413;52.770;6.892;2024-03-08T00:26:44;2.50;99.90
52889;DHT22;41413;52.770;6.892;2024-03-08T00:29:10;2.50;99.90
52889;DHT22;41413;52.770;6.892;2024-03-08T00:31:37;2.50;99.90
52889;DHT22;41413;52.770;6.892;2024-03-08T00:34:04;2.50;99.90
52889;DHT22;41413;52.770;6.892;2024-03-08T00:36:31;2.40;99.90
52889;DHT22;41413;52.770;6.892;2024-03-08T00:38:57;2.40;99.90
52889;DHT22;41413;52.770;6.892;2024-03-08T00:41:28;2.40;99.90
52889;DHT22;41413;52.770;6.892;2024-03-08T00:43:55;2.30;99.90
52889;DHT22;41413;52.770;6.892;2024-03-08T00:46:21;2.40;99.90
52889;DHT22;41413;52.770;6.892;2024-03-08T00:48:48;2.30;99.90
52889;DHT22;41413;52.770;6.892;2024-03-08T00:51:15;2.30;99.90
52889;DHT22;41413;52.770;6.892;2024-03-08T00:53:42;2.30;99.90
52889;DHT22;41413;52.770;6.892;2024-03-08T00:56:10;2.30;99.90
52889;DHT22;41413;52.770;6.892;2024-03-08T00:58:36;2.20;99.90
52889;DHT22;41413;52.770;6.892;2024-03-08T01:01:04;2.20;99.90
52889;DHT22;41413;52.770;6.892;2024-03-08T01:03:31;2.20;99.90
52889;DHT22;41413;52.770;6.892;2024-03-08T01:05:58;2.20;99.90
52889;DHT22;41413;52.770;6.892;2024-03-08T01:08:28;2.10;99.90
52889;DHT22;41413;52.770;6.892;2024-03-08T01:10:54;2.10;99.90
52889;DHT22;41413;52.770;6.892;2024-03-08T01:13:21;2.10;99.90
52889;DHT22;41413;52.770;6.892;2024-03-08T01:15:48;2.20;99.90
52889;DHT22;41413;52.770;6.892;2024-03-08T01:18:15;2.10;99.90
52889;DHT22;41413;52.770;6.892;2024-03-08T01:20:41;2.10;99.90
52889;DHT22;41413;52.770;6.892;2024-03-08T01:23:08;2.10;99.90
52889;DHT22;41413;52.770;6.892;2024-03-08T01:25:35;2.10;99.90
52889;DHT22;41413;52.770;6.892;2024-03-08T01:28:02;2.10;99.90
52889;DHT22;41413;52.770;6.892;2024-03-08T01:30:29;2.10;99.90
52889;DHT22;41413;52.770;6.892;2024-03-08T01:32:55;2.00;99.90
52889;DHT22;41413;52.770;6.892;2024-03-08T01:35:23;2.00;99.90
52889;DHT22;41413;52.770;6.892;2024-03-08T01:37:50;2.00;99.90
52889;DHT22;41413;52.770;6.892;2024-03-08T01:40:17;1.90;99.90
52889;DHT22;41413;52.770;6.892;2024-03-08T01:42:43;1.90;99.90
52889;DHT22;41413;52.770;6.892;2024-03-08T01:45:11;1.90;99.90
52889;DHT22;41413;52.770;6.892;2024-03-08T01:47:38;1.90;99.90
52889;DHT22;41413;52.770;6.892;2024-03-08T01:50:05;1.90;99.90
52889;DHT22;41413;52.770;6.892;2024-03-08T01:52:34;1.90;99.90
52889;DHT22;41413;52.770;6.892;2024-03-08T01:55:02;1.90;99.90
52889;DHT22;41413;52.770;6.892;2024-03-08T01:57:41;1.90;99.90
52889;DHT22;41413;52.770;6.892;2024-03-08T02:00:08;1.90;99.90
52889;DHT22;41413;52.770;6.892;2024-03-08T02:02:37;1.90;99.90
52889;DHT22;41413;52.770;6.892;2024-03-08T02:05:05;1.90;99.90
52889;DHT22;41413;52.770;6.892;2024-03-08T02:07:31;1.80;99.90
52889;DHT22;41413;52.770;6.892;2024-03-08T02:09:58;1.80;99.90
52889;DHT22;41413;52.770;6.892;2024-03-08T02:12:25;1.80;99.90
52889;DHT22;41413;52.770;6.892;2024-03-08T02:14:53;1.80;99.90
52889;DHT22;41413;52.770;6.892;2024-03-08T02:17:20;1.80;99.90
52889;DHT22;41413;52.770;6.892;2024-03-08T02:19:47;1.80;99.90
52889;DHT22;41413;52.770;6.892;2024-03-08T02:22:14;1.80;99.90
52889;DHT22;41413;52.770;6.892;2024-03-08T02:24:41;1.80;99.90
52889;DHT22;41413;52.770;6.892;2024-03-08T02:27:07;1.80;99.90
52889;DHT22;41413;52.770;6.892;2024-03-08T02:29:34;1.80;99.90
52889;DHT22;41413;52.770;6.892;2024-03-08T02:32:02;1.80;99.90
52889;DHT22;41413;52.770;6.892;2024-03-08T02:34:29;1.80;99.90
52889;DHT22;41413;52.770;6.892;2024-03-08T02:36:58;1.80;99.90
52889;DHT22;41413;52.770;6.892;2024-03-08T02:39:24;1.70;99.90
52889;DHT22;41413;52.770;6.892;2024-03-08T02:41:52;1.70;99.90
52889;DHT22;41413;52.770;6.892;2024-03-08T02:44:19;1.70;99.90
52889;DHT22;41413;52.770;6.892;2024-03-08T02:46:48;1.70;99.90
52889;DHT22;41413;52.770;6.892;2024-03-08T02:49:15;1.70;99.90
52889;DHT22;41413;52.770;6.892;2024-03-08T02:51:42;1.70;99.90
52889;DHT22;41413;52.770;6.892;2024-03-08T02:54:09;1.70;99.90
52889;DHT22;41413;52.770;6.892;2024-03-08T02:56:37;1.70;99.90
52889;DHT22;41413;52.770;6.892;2024-03-08T02:59:03;1.70;99.90
52889;DHT22;41413;52.770;6.892;2024-03-08T03:01:30;1.70;99.90
52889;DHT22;41413;52.770;6.892;2024-03-08T03:03:58;1.70;99.90
52889;DHT22;41413;52.770;6.892;2024-03-08T03:06:25;1.70;99.90
52889;DHT22;41413;52.770;6.892;2024-03-08T03:08:52;1.70;99.90
52889;DHT22;41413;52.770;6.892;2024-03-08T03:11:19;1.70;99.90
52889;DHT22;41413;52.770;6.892;2024-03-08T03:13:46;1.70;99.90
52889;DHT22;41413;52.770;6.892;2024-03-08T03:16:21;1.70;99.90
52889;DHT22;41413;52.770;6.892;2024-03-08T03:18:48;1.70;99.90
52889;DHT22;41413;52.770;6.892;2024-03-08T03:21:15;1.70;99.90
52889;DHT22;41413;52.770;6.892;2024-03-08T03:23:42;1.70;99.90
52889;DHT22;41413;52.770;6.892;2024-03-08T03:26:09;1.70;99.90
52889;DHT22;41413;52.770;6.892;2024-03-08T03:28:38;1.70;99.90
52889;DHT22;41413;52.770;6.892;2024-03-08T03:31:06;1.60;99.90
52889;DHT22;41413;52.770;6.892;2024-03-08T03:33:36;1.60;99.90
52889;DHT22;41413;52.770;6.892;2024-03-08T03:36:04;1.60;99.90
52889;DHT22;41413;52.770;6.892;2024-03-08T03:38:32;1.60;99.90
52889;DHT22;41413;52.770;6.892;2024-03-08T03:40:58;1.60;99.90
52889;DHT22;41413;52.770;6.892;2024-03-08T03:43:33;1.50;99.90
52889;DHT22;41413;52.770;6.892;2024-03-08T03:45:59;1.50;99.90
52889;DHT22;41413;52.770;6.892;2024-03-08T03:48:26;1.50;99.90
52889;DHT22;41413;52.770;6.892;2024-03-08T03:50:53;1.50;99.90
52889;DHT22;41413;52.770;6.892;2024-03-08T03:53:20;1.50;99.90
52889;DHT22;41413;52.770;6.892;2024-03-08T03:55:47;1.50;99.90
52889;DHT22;41413;52.770;6.892;2024-03-08T03:58:13;1.50;99.90
52889;DHT22;41413;52.770;6.892;2024-03-08T04:00:40;1.50;99.90
52889;DHT22;41413;52.770;6.892;2024-03-08T04:03:07;1.50;99.90
52889;DHT22;41413;52.770;6.892;2024-03-08T04:05:35;1.50;99.90
52889;DHT22;41413;52.770;6.892;2024-03-08T04:08:02;1.40;99.90
52889;DHT22;41413;52.770;6.892;2024-03-08T04:10:29;1.40;99.90
52889;DHT22;41413;52.770;6.892;2024-03-08T04:12:56;1.40;99.90
52889;DHT22;41413;52.770;6.892;2024-03-08T04:15:23;1.30;99.90
52889;DHT22;41413;52.770;6.892;2024-03-08T04:17:50;1.30;99.90
52889;DHT22;41413;52.770;6.892;2024-03-08T04:20:17;1.30;99.90
52889;DHT22;41413;52.770;6.892;2024-03-08T04:22:44;1.20;99.90
52889;DHT22;41413;52.770;6.892;2024-03-08T04:25:13;1.20;99.90
52889;DHT22;41413;52.770;6.892;2024-03-08T04:27:41;1.20;99.90
52889;DHT22;41413;52.770;6.892;2024-03-08T04:30:08;1.20;99.90
52889;DHT22;41413;52.770;6.892;2024-03-08T04:32:36;1.20;99.90
52889;DHT22;41413;52.770;6.892;2024-03-08T04:35:03;1.20;99.90
52889;DHT22;41413;52.770;6.892;2024-03-08T04:37:30;1.20;99.90
52889;DHT22;41413;52.770;6.892;2024-03-08T04:39:58;1.10;99.90
52889;DHT22;41413;52.770;6.892;2024-03-08T04:42:25;1.20;99.90
52889;DHT22;41413;52.770;6.892;2024-03-08T04:44:53;1.10;99.90
52889;DHT22;41413;52.770;6.892;2024-03-08T04:47:20;1.10;99.90
52889;DHT22;41413;52.770;6.892;2024-03-08T04:49:47;1.10;99.90
52889;DHT22;41413;52.770;6.892;2024-03-08T04:52:14;1.10;99.90
52889;DHT22;41413;52.770;6.892;2024-03-08T04:54:40;1.10;99.90
52889;DHT22;41413;52.770;6.892;2024-03-08T04:57:07;1.10;99.90
52889;DHT22;41413;52.770;6.892;2024-03-08T04:59:35;1.10;99.90
52889;DHT22;41413;52.770;6.892;2024-03-08T05:02:03;1.00;99.90
52889;DHT22;41413;52.770;6.892;2024-03-08T05:04:30;1.00;99.90
52889;DHT22;41413;52.770;6.892;2024-03-08T05:06:57;1.00;99.90
52889;DHT22;41413;52.770;6.892;2024-03-08T05:09:23;0.90;99.90
52889;DHT22;41413;52.770;6.892;2024-03-08T05:11:50;0.90;99.90
52889;DHT22;41413;52.770;6.892;2024-03-08T05:14:17;0.90;99.90
52889;DHT22;41413;52.770;6.892;2024-03-08T05:16:47;0.90;99.90
52889;DHT22;41413;52.770;6.892;2024-03-08T05:19:19;0.80;99.90
52889;DHT22;41413;52.770;6.892;2024-03-08T05:21:47;0.80;99.90
52889;DHT22;41413;52.770;6.892;2024-03-08T05:24:15;0.80;99.90
52889;DHT22;41413;52.770;6.892;2024-03-08T05:26:42;0.80;99.90
52889;DHT22;41413;52.770;6.892;2024-03-08T05:29:09;0.80;99.90
52889;DHT22;41413;52.770;6.892;2024-03-08T05:31:50;0.80;99.90
52889;DHT22;41413;52.770;6.892;2024-03-08T05:34:17;0.90;99.90
52889;DHT22;41413;52.770;6.892;2024-03-08T05:36:44;0.80;99.90
52889;DHT22;41413;52.770;6.892;2024-03-08T05:39:12;0.80;99.90
52889;DHT22;41413;52.770;6.892;2024-03-08T05:41:40;0.80;99.90
52889;DHT22;41413;52.770;6.892;2024-03-08T05:44:07;0.80;99.90
52889;DHT22;41413;52.770;6.892;2024-03-08T05:46:34;0.70;99.90
52889;DHT22;41413;52.770;6.892;2024-03-08T05:49:06;0.80;99.90
52889;DHT22;41413;52.770;6.892;2024-03-08T05:51:34;0.70;99.90
52889;DHT22;41413;52.770;6.892;2024-03-08T05:54:02;0.70;99.90
52889;DHT22;41413;52.770;6.892;2024-03-08T05:56:29;0.70;99.90
52889;DHT22;41413;52.770;6.892;2024-03-08T05:58:56;0.80;99.90
52889;DHT22;41413;52.770;6.892;2024-03-08T06:01:25;0.80;99.90
52889;DHT22;41413;52.770;6.892;2024-03-08T06:03:56;0.80;99.90
52889;DHT22;41413;52.770;6.892;2024-03-08T06:06:24;0.80;99.90
52889;DHT22;41413;52.770;6.892;2024-03-08T06:08:51;0.80;99.90
52889;DHT22;41413;52.770;6.892;2024-03-08T06:11:20;0.80;99.90
52889;DHT22;41413;52.770;6.892;2024-03-08T06:13:47;0.80;99.90
52889;DHT22;41413;52.770;6.892;2024-03-08T06:16:14;0.80;99.90
52889;DHT22;41413;52.770;6.892;2024-03-08T06:18:41;0.90;99.90
52889;DHT22;41413;52.770;6.892;2024-03-08T06:21:09;0.90;99.90
52889;DHT22;41413;52.770;6.892;2024-03-08T06:23:38;0.90;99.90
52889;DHT22;41413;52.770;6.892;2024-03-08T06:26:06;0.90;99.90
52889;DHT22;41413;52.770;6.892;2024-03-08T06:28:33;0.90;99.90
52889;DHT22;41413;52.770;6.892;2024-03-08T06:31:01;0.90;99.90
52889;DHT22;41413;52.770;6.892;2024-03-08T06:33:29;1.00;99.90
52889;DHT22;41413;52.770;6.892;2024-03-08T06:35:57;1.00;99.90
52889;DHT22;41413;52.770;6.892;2024-03-08T06:38:25;1.00;99.90
52889;DHT22;41413;52.770;6.892;2024-03-08T06:40:52;1.10;99.90
52889;DHT22;41413;52.770;6.892;2024-03-08T06:43:19;1.30;99.90
52889;DHT22;41413;52.770;6.892;2024-03-08T06:45:46;1.40;99.90
52889;DHT22;41413;52.770;6.892;2024-03-08T06:48:18;1.60;99.90
52889;DHT22;41413;52.770;6.892;2024-03-08T06:50:46;1.80;99.90
52889;DHT22;41413;52.770;6.892;2024-03-08T06:53:13;2.00;99.90
52889;DHT22;41413;52.770;6.892;2024-03-08T06:55:40;2.20;99.90
52889;DHT22;41413;52.770;6.892;2024-03-08T06:58:07;2.30;99.90
52889;DHT22;41413;52.770;6.892;2024-03-08T07:00:34;2.40;99.90
52889;DHT22;41413;52.770;6.892;2024-03-08T07:03:00;2.60;99.90
52889;DHT22;41413;52.770;6.892;2024-03-08T07:05:31;2.80;99.90
52889;DHT22;41413;52.770;6.892;2024-03-08T07:07:59;3.20;99.90
52889;DHT22;41413;52.770;6.892;2024-03-08T07:10:25;3.50;99.90
52889;DHT22;41413;52.770;6.892;2024-03-08T07:12:53;3.60;99.90
52889;DHT22;41413;52.770;6.892;2024-03-08T07:15:20;3.70;99.90
52889;DHT22;41413;52.770;6.892;2024-03-08T07:17:47;3.70;99.90
52889;DHT22;41413;52.770;6.892;2024-03-08T07:20:15;3.60;99.90
52889;DHT22;41413;52.770;6.892;2024-03-08T07:22:46;3.60;99.90
52889;DHT22;41413;52.770;6.892;2024-03-08T07:25:18;3.50;99.90
52889;DHT22;41413;52.770;6.892;2024-03-08T07:27:53;3.40;99.90
52889;DHT22;41413;52.770;6.892;2024-03-08T07:30:21;3.40;99.90
52889;DHT22;41413;52.770;6.892;2024-03-08T07:33:07;3.60;99.90
52889;DHT22;41413;52.770;6.892;2024-03-08T07:35:34;4.00;99.90
52889;DHT22;41413;52.770;6.892;2024-03-08T07:38:05;4.30;99.90
52889;DHT22;41413;52.770;6.892;2024-03-08T07:40:41;4.70;99.90
52889;DHT22;41413;52.770;6.892;2024-03-08T07:43:11;5.10;99.90
52889;DHT22;41413;52.770;6.892;2024-03-08T07:45:38;5.00;99.90
52889;DHT22;41413;52.770;6.892;2024-03-08T07:48:06;5.20;99.90
52889;DHT22;41413;52.770;6.892;2024-03-08T07:50:40;5.40;99.90
52889;DHT22;41413;52.770;6.892;2024-03-08T07:53:07;5.30;99.90
52889;DHT22;41413;52.770;6.892;2024-03-08T07:55:35;5.50;99.90
52889;DHT22;41413;52.770;6.892;2024-03-08T07:58:03;5.70;99.90
52889;DHT22;41413;52.770;6.892;2024-03-08T08:00:30;6.10;99.90
52889;DHT22;41413;52.770;6.892;2024-03-08T08:02:58;6.70;99.90
52889;DHT22;41413;52.770;6.892;2024-03-08T08:05:25;7.30;99.90
52889;DHT22;41413;52.770;6.892;2024-03-08T08:07:53;7.40;99.90
52889;DHT22;41413;52.770;6.892;2024-03-08T08:10:20;8.00;99.90
52889;DHT22;41413;52.770;6.892;2024-03-08T08:12:52;8.20;99.90
52889;DHT22;41413;52.770;6.892;2024-03-08T08:15:19;8.50;99.90
52889;DHT22;41413;52.770;6.892;2024-03-08T08:17:47;8.80;99.90
52889;DHT22;41413;52.770;6.892;2024-03-08T08:20:14;9.40;99.90
52889;DHT22;41413;52.770;6.892;2024-03-08T08:22:42;9.20;99.90
52889;DHT22;41413;52.770;6.892;2024-03-08T08:25:12;9.60;99.90
52889;DHT22;41413;52.770;6.892;2024-03-08T08:27:42;9.60;99.90
52889;DHT22;41413;52.770;6.892;2024-03-08T08:30:09;9.80;99.90
52889;DHT22;41413;52.770;6.892;2024-03-08T08:32:38;9.90;99.90
52889;DHT22;41413;52.770;6.892;2024-03-08T08:35:11;10.20;99.90
52889;DHT22;41413;52.770;6.892;2024-03-08T08:37:39;10.30;99.90
52889;DHT22;41413;52.770;6.892;2024-03-08T08:40:07;10.20;99.90
52889;DHT22;41413;52.770;6.892;2024-03-08T08:42:37;10.20;99.90
52889;DHT22;41413;52.770;6.892;2024-03-08T08:45:05;10.30;99.90
52889;DHT22;41413;52.770;6.892;2024-03-08T08:47:42;10.90;99.90
52889;DHT22;41413;52.770;6.892;2024-03-08T08:50:09;11.20;99.90
52889;DHT22;41413;52.770;6.892;2024-03-08T08:52:39;11.50;99.90
52889;DHT22;41413;52.770;6.892;2024-03-08T08:55:07;11.60;99.90
52889;DHT22;41413;52.770;6.892;2024-03-08T08:57:34;11.80;99.90
52889;DHT22;41413;52.770;6.892;2024-03-08T09:00:02;11.80;99.90
52889;DHT22;41413;52.770;6.892;2024-03-08T09:02:34;11.80;99.90
52889;DHT22;41413;52.770;6.892;2024-03-08T09:05:01;11.50;99.90
52889;DHT22;41413;52.770;6.892;2024-03-08T09:07:29;11.50;99.90
52889;DHT22;41413;52.770;6.892;2024-03-08T09:09:55;11.60;99.90
52889;DHT22;41413;52.770;6.892;2024-03-08T09:12:26;11.80;99.90
52889;DHT22;41413;52.770;6.892;2024-03-08T09:14:53;11.50;99.90
52889;DHT22;41413;52.770;6.892;2024-03-08T09:17:19;11.40;99.90
52889;DHT22;41413;52.770;6.892;2024-03-08T09:19:49;11.40;99.90
52889;DHT22;41413;52.770;6.892;2024-03-08T09:22:16;11.40;99.90
52889;DHT22;41413;52.770;6.892;2024-03-08T09:24:45;11.00;99.80
52889;DHT22;41413;52.770;6.892;2024-03-08T09:27:12;11.50;99.90
52889;DHT22;41413;52.770;6.892;2024-03-08T09:29:40;11.80;99.20
52889;DHT22;41413;52.770;6.892;2024-03-08T09:32:07;11.70;99.40
52889;DHT22;41413;52.770;6.892;2024-03-08T09:34:34;12.10;99.50
52889;DHT22;41413;52.770;6.892;2024-03-08T09:37:04;12.20;99.10
52889;DHT22;41413;52.770;6.892;2024-03-08T09:39:31;12.10;99.20
52889;DHT22;41413;52.770;6.892;2024-03-08T09:42:01;11.90;99.40
52889;DHT22;41413;52.770;6.892;2024-03-08T09:44:27;11.90;99.90
52889;DHT22;41413;52.770;6.892;2024-03-08T09:46:55;12.30;99.00
52889;DHT22;41413;52.770;6.892;2024-03-08T09:49:25;12.10;99.10
52889;DHT22;41413;52.770;6.892;2024-03-08T09:51:52;12.40;99.80
52889;DHT22;41413;52.770;6.892;2024-03-08T09:54:20;12.70;99.50
52889;DHT22;41413;52.770;6.892;2024-03-08T09:56:51;13.00;98.70
52889;DHT22;41413;52.770;6.892;2024-03-08T09:59:18;12.90;98.40
52889;DHT22;41413;52.770;6.892;2024-03-08T10:01:48;12.70;98.60
52889;DHT22;41413;52.770;6.892;2024-03-08T10:04:14;13.00;98.80
52889;DHT22;41413;52.770;6.892;2024-03-08T10:06:44;12.90;98.30
52889;DHT22;41413;52.770;6.892;2024-03-08T10:09:13;13.20;98.70
52889;DHT22;41413;52.770;6.892;2024-03-08T10:11:40;13.60;98.40
52889;DHT22;41413;52.770;6.892;2024-03-08T10:14:09;13.50;99.00
52889;DHT22;41413;52.770;6.892;2024-03-08T10:16:35;14.10;98.90
52889;DHT22;41413;52.770;6.892;2024-03-08T10:19:02;13.80;97.90
52889;DHT22;41413;52.770;6.892;2024-03-08T10:21:32;14.00;98.30
52889;DHT22;41413;52.770;6.892;2024-03-08T10:24:05;13.90;97.30
52889;DHT22;41413;52.770;6.892;2024-03-08T10:26:31;13.70;97.70
52889;DHT22;41413;52.770;6.892;2024-03-08T10:28:58;14.10;98.10
52889;DHT22;41413;52.770;6.892;2024-03-08T10:31:25;14.30;97.60
52889;DHT22;41413;52.770;6.892;2024-03-08T10:33:52;13.80;97.60
52889;DHT22;41413;52.770;6.892;2024-03-08T10:36:19;14.20;97.20
52889;DHT22;41413;52.770;6.892;2024-03-08T10:38:46;14.00;97.00
52889;DHT22;41413;52.770;6.892;2024-03-08T10:41:16;14.00;96.90
52889;DHT22;41413;52.770;6.892;2024-03-08T10:49:27;14.60;96.50
52889;DHT22;41413;52.770;6.892;2024-03-08T10:51:57;14.40;97.20
52889;DHT22;41413;52.770;6.892;2024-03-08T10:54:26;14.40;96.90
52889;DHT22;41413;52.770;6.892;2024-03-08T10:56:53;14.00;96.60
52889;DHT22;41413;52.770;6.892;2024-03-08T10:59:22;14.00;96.60
52889;DHT22;41413;52.770;6.892;2024-03-08T11:01:48;14.10;96.60
52889;DHT22;41413;52.770;6.892;2024-03-08T11:04:16;14.10;97.00
52889;DHT22;41413;52.770;6.892;2024-03-08T11:06:46;14.20;96.80
52889;DHT22;41413;52.770;6.892;2024-03-08T11:09:34;14.20;96.20
52889;DHT22;41413;52.770;6.892;2024-03-08T11:12:28;14.50;96.80
52889;DHT22;41413;52.770;6.892;2024-03-08T11:15:00;14.60;96.40
52889;DHT22;41413;52.770;6.892;2024-03-08T11:19:58;14.30;96.60
52889;DHT22;41413;52.770;6.892;2024-03-08T11:22:29;14.40;96.00
52889;DHT22;41413;52.770;6.892;2024-03-08T11:25:02;14.10;96.40
52889;DHT22;41413;52.770;6.892;2024-03-08T11:27:30;14.10;96.80
52889;DHT22;41413;52.770;6.892;2024-03-08T11:30:05;14.20;97.20
52889;DHT22;41413;52.770;6.892;2024-03-08T11:32:47;14.80;96.60
52889;DHT22;41413;52.770;6.892;2024-03-08T11:35:19;14.60;96.00
52889;DHT22;41413;52.770;6.892;2024-03-08T11:37:46;14.30;95.80
52889;DHT22;41413;52.770;6.892;2024-03-08T11:40:15;13.40;96.70
52889;DHT22;41413;52.770;6.892;2024-03-08T11:42:47;12.70;97.40
52889;DHT22;41413;52.770;6.892;2024-03-08T11:45:19;12.20;97.60
52889;DHT22;41413;52.770;6.892;2024-03-08T11:47:48;11.60;98.30
52889;DHT22;41413;52.770;6.892;2024-03-08T11:50:17;11.30;98.30
52889;DHT22;41413;52.770;6.892;2024-03-08T11:52:46;11.20;99.00
52889;DHT22;41413;52.770;6.892;2024-03-08T11:55:13;11.10;98.40
52889;DHT22;41413;52.770;6.892;2024-03-08T11:57:41;11.00;98.80
52889;DHT22;41413;52.770;6.892;2024-03-08T12:00:18;11.00;98.80
52889;DHT22;41413;52.770;6.892;2024-03-08T12:03:15;11.00;99.30
52889;DHT22;41413;52.770;6.892;2024-03-08T12:05:42;10.80;99.20
52889;DHT22;41413;52.770;6.892;2024-03-08T12:08:09;10.80;99.60
52889;DHT22;41413;52.770;6.892;2024-03-08T12:10:40;11.00;99.70
52889;DHT22;41413;52.770;6.892;2024-03-08T12:13:07;10.80;99.40
52889;DHT22;41413;52.770;6.892;2024-03-08T12:15:39;10.90;99.40
52889;DHT22;41413;52.770;6.892;2024-03-08T12:18:07;11.00;99.80
52889;DHT22;41413;52.770;6.892;2024-03-08T12:20:37;10.90;99.80
52889;DHT22;41413;52.770;6.892;2024-03-08T12:23:05;11.00;99.80
52889;DHT22;41413;52.770;6.892;2024-03-08T12:25:33;11.20;99.50
52889;DHT22;41413;52.770;6.892;2024-03-08T12:28:11;11.20;99.90
52889;DHT22;41413;52.770;6.892;2024-03-08T12:30:47;11.30;99.60
52889;DHT22;41413;52.770;6.892;2024-03-08T12:33:15;11.20;99.60
52889;DHT22;41413;52.770;6.892;2024-03-08T12:35:53;11.20;99.70
52889;DHT22;41413;52.770;6.892;2024-03-08T12:38:22;11.20;99.30
52889;DHT22;41413;52.770;6.892;2024-03-08T12:40:58;11.20;99.40
52889;DHT22;41413;52.770;6.892;2024-03-08T12:43:25;11.10;99.00
52889;DHT22;41413;52.770;6.892;2024-03-08T12:45:52;10.90;99.20
52889;DHT22;41413;52.770;6.892;2024-03-08T12:48:19;11.00;99.60
52889;DHT22;41413;52.770;6.892;2024-03-08T12:50:47;10.80;99.60
52889;DHT22;41413;52.770;6.892;2024-03-08T12:53:14;10.90;99.90
52889;DHT22;41413;52.770;6.892;2024-03-08T12:55:41;10.80;99.90
52889;DHT22;41413;52.770;6.892;2024-03-08T12:58:09;10.90;99.90
52889;DHT22;41413;52.770;6.892;2024-03-08T13:00:35;10.90;99.70
52889;DHT22;41413;52.770;6.892;2024-03-08T13:03:09;11.00;99.70
52889;DHT22;41413;52.770;6.892;2024-03-08T13:05:38;11.00;99.80
52889;DHT22;41413;52.770;6.892;2024-03-08T13:08:07;11.00;99.40
52889;DHT22;41413;52.770;6.892;2024-03-08T13:10:40;11.10;99.30
52889;DHT22;41413;52.770;6.892;2024-03-08T13:13:12;11.00;99.70
52889;DHT22;41413;52.770;6.892;2024-03-08T13:15:44;11.10;99.60
52889;DHT22;41413;52.770;6.892;2024-03-08T13:18:10;11.00;99.90
52889;DHT22;41413;52.770;6.892;2024-03-08T13:20:37;11.00;99.60
52889;DHT22;41413;52.770;6.892;2024-03-08T13:23:13;11.10;99.40
52889;DHT22;41413;52.770;6.892;2024-03-08T13:25:40;11.00;99.30
52889;DHT22;41413;52.770;6.892;2024-03-08T13:28:07;10.80;99.30
52889;DHT22;41413;52.770;6.892;2024-03-08T13:30:35;10.80;99.50
52889;DHT22;41413;52.770;6.892;2024-03-08T13:33:02;10.90;99.50
52889;DHT22;41413;52.770;6.892;2024-03-08T13:35:31;10.80;99.50
52889;DHT22;41413;52.770;6.892;2024-03-08T13:37:59;10.70;99.00
52889;DHT22;41413;52.770;6.892;2024-03-08T13:40:26;10.60;99.50
52889;DHT22;41413;52.770;6.892;2024-03-08T13:42:52;10.60;99.50
52889;DHT22;41413;52.770;6.892;2024-03-08T13:45:19;10.70;99.60
52889;DHT22;41413;52.770;6.892;2024-03-08T13:47:51;10.90;99.20
52889;DHT22;41413;52.770;6.892;2024-03-08T13:50:21;10.80;99.00
52889;DHT22;41413;52.770;6.892;2024-03-08T13:52:50;10.80;99.50
52889;DHT22;41413;52.770;6.892;2024-03-08T13:55:20;10.70;99.30
52889;DHT22;41413;52.770;6.892;2024-03-08T13:57:48;10.60;99.80
52889;DHT22;41413;52.770;6.892;2024-03-08T14:00:17;10.60;99.40
52889;DHT22;41413;52.770;6.892;2024-03-08T14:02:44;10.70;99.60
52889;DHT22;41413;52.770;6.892;2024-03-08T14:05:10;10.80;99.90
52889;DHT22;41413;52.770;6.892;2024-03-08T14:07:38;10.90;99.80
52889;DHT22;41413;52.770;6.892;2024-03-08T14:10:06;10.80;99.30
52889;DHT22;41413;52.770;6.892;2024-03-08T14:12:34;10.90;99.20
52889;DHT22;41413;52.770;6.892;2024-03-08T14:15:01;10.80;99.10
52889;DHT22;41413;52.770;6.892;2024-03-08T14:17:32;10.70;99.60
52889;DHT22;41413;52.770;6.892;2024-03-08T14:19:59;10.70;99.50
52889;DHT22;41413;52.770;6.892;2024-03-08T14:22:26;10.70;99.40
52889;DHT22;41413;52.770;6.892;2024-03-08T14:24:53;10.70;99.10
52889;DHT22;41413;52.770;6.892;2024-03-08T14:27:22;10.60;98.70
52889;DHT22;41413;52.770;6.892;2024-03-08T14:29:49;10.60;99.20
52889;DHT22;41413;52.770;6.892;2024-03-08T14:32:16;10.40;99.20
52889;DHT22;41413;52.770;6.892;2024-03-08T14:34:46;10.40;99.70
52889;DHT22;41413;52.770;6.892;2024-03-08T14:37:14;10.30;99.80
52889;DHT22;41413;52.770;6.892;2024-03-08T14:39:41;10.20;99.80
52889;DHT22;41413;52.770;6.892;2024-03-08T14:42:08;10.10;99.80
52889;DHT22;41413;52.770;6.892;2024-03-08T14:44:39;10.20;99.90
52889;DHT22;41413;52.770;6.892;2024-03-08T14:47:06;10.30;99.90
52889;DHT22;41413;52.770;6.892;2024-03-08T14:49:33;10.40;99.90
52889;DHT22;41413;52.770;6.892;2024-03-08T14:52:03;10.30;99.90
52889;DHT22;41413;52.770;6.892;2024-03-08T14:54:34;10.30;99.90
52889;DHT22;41413;52.770;6.892;2024-03-08T14:57:00;10.30;99.90
52889;DHT22;41413;52.770;6.892;2024-03-08T14:59:27;10.20;99.90
52889;DHT22;41413;52.770;6.892;2024-03-08T15:01:56;10.20;99.90
52889;DHT22;41413;52.770;6.892;2024-03-08T15:04:22;10.20;99.90
52889;DHT22;41413;52.770;6.892;2024-03-08T15:06:49;10.10;99.70
52889;DHT22;41413;52.770;6.892;2024-03-08T15:09:18;10.00;99.80
52889;DHT22;41413;52.770;6.892;2024-03-08T15:11:48;9.90;99.90
52889;DHT22;41413;52.770;6.892;2024-03-08T15:14:17;9.90;99.90
52889;DHT22;41413;52.770;6.892;2024-03-08T15:16:46;9.90;99.90
52889;DHT22;41413;52.770;6.892;2024-03-08T15:19:14;9.80;99.90
52889;DHT22;41413;52.770;6.892;2024-03-08T15:21:42;9.70;99.90
52889;DHT22;41413;52.770;6.892;2024-03-08T15:24:12;9.70;99.90
52889;DHT22;41413;52.770;6.892;2024-03-08T15:26:42;9.80;99.90
52889;DHT22;41413;52.770;6.892;2024-03-08T15:29:10;9.80;99.90
52889;DHT22;41413;52.770;6.892;2024-03-08T15:31:39;9.80;99.90
52889;DHT22;41413;52.770;6.892;2024-03-08T15:34:07;9.80;99.90
52889;DHT22;41413;52.770;6.892;2024-03-08T15:36:35;9.80;99.90
52889;DHT22;41413;52.770;6.892;2024-03-08T15:39:02;9.70;99.90
52889;DHT22;41413;52.770;6.892;2024-03-08T15:41:29;9.70;99.90
52889;DHT22;41413;52.770;6.892;2024-03-08T15:43:56;9.80;99.90
52889;DHT22;41413;52.770;6.892;2024-03-08T15:46:23;9.60;99.90
52889;DHT22;41413;52.770;6.892;2024-03-08T15:48:51;9.60;99.90
52889;DHT22;41413;52.770;6.892;2024-03-08T15:51:18;9.50;99.90
52889;DHT22;41413;52.770;6.892;2024-03-08T15:53:46;9.50;99.90
52889;DHT22;41413;52.770;6.892;2024-03-08T15:56:23;9.40;99.90